Terminal Aerodrome Forecast
Issued by NWS Pocatello, ID

Home | Current Version | Previous Version | Text Only | Print | Product List | Glossary On
Versions: 1 2 3 4 5 6 7 8 9 10 11 12 13 14 15 16 17 18 19 20 21 22 23 24 25 26
000
FTUS45 KPIH 240028 AAA
TAFPIH
TAF AMD
KPIH 240028Z 2400/2424 29020G30KT 1/2SM SN BLSN FZFG VV005
     FM240100 25012G22KT 1/2SM -SN FZFG VV005
     FM241600 27010KT 3SM -SHSN BR BKN005 OVC015=

USA.gov is the U.S. government's official web portal to all federal, state and local government web resources and services.